Thunderstorms From: 26-05-2018 21:24 Until: 27-05-2018 15:00 warning for: Thunderstorms Level: Yellow info button

Although rather usual in this region, locally or potentially dangerous phenomena are expected. (such as local winds, summer thunderstorms, rising streams or high waves) Be aware and pay attention to the latest weather updates, especially if you carry out activities exposed to weather or close to a stream or shoreline. 


Meteo18 Weather Cam more information Meteo18 Weather Cam


warning for Thunderstorms more information blitzortung!


Rain radar more information rain snow radar


Visit our other weather sites:

Template documentation
and downloads

And another site



Weather Underground History page Text

Daily Summary for April 10, 2016 Units:  Metric    English   Both
« Previous Day
Next Day »
Daily Weekly Monthly Yearly Custom
  High: Low: Average:
Temperature: -17.8 °C -16.8 °C -12.1 °C
Dew Point: -17.8 °C -17.1 °C -14.4 °C
Humidity: Humidity % 49 % 77 %
Wind Speed: 0 km/h 0 km/h 2.7 km/h
Wind Gust: 0 km/h - -
Wind:- - WSW
Pressure: 0 hPa 33937.9 hPa -
Precipitation: 12.7 mm    
Historical Graphs
 
 
Tabular Data for April 10, 2016
Time Temperature Dew Point Pressure Wind Wind Speed Wind Gust Humidity Rainfall Rate (Hourly)
-17.8 °C -17.8 °C 0 hPa Calm     Humidity % 0 mm
00:02 -14.9 °C -15.4 °C 34164.7 hPa Calm     94 % 0 mm
00:07 -14.9 °C -15.3 °C 34164.7 hPa Calm     95 % 0 mm
00:12 -15.1 °C -15.4 °C 34164.7 hPa Calm     95 % 0 mm
00:17 -15.2 °C -15.6 °C 34164.7 hPa Calm     95 % 0 mm
00:22 -15.3 °C -15.7 °C 34178.3 hPa Calm     95 % 0 mm
00:32 -15.3 °C -15.7 °C 34178.3 hPa Calm     95 % 0 mm
00:37 -15.4 °C -15.8 °C 34178.3 hPa Calm     95 % 0 mm
00:42 -15.4 °C -15.7 °C 34178.3 hPa Calm     96 % 7.62 mm
00:47 -15.4 °C -15.8 °C 34178.3 hPa Calm     95 % 7.62 mm
00:52 -15.4 °C -15.8 °C 34178.3 hPa Calm     96 % 7.62 mm
00:57 -15.4 °C -15.6 °C 34178.3 hPa Calm     97 % 7.62 mm
01:02 -15.4 °C -15.7 °C 34178.3 hPa Calm     96 % 7.62 mm
01:07 -15.4 °C -15.8 °C 34178.3 hPa Calm     96 % 7.62 mm
01:12 -15.6 °C -15.9 °C 34178.3 hPa Calm     96 % 7.62 mm
01:17 -15.7 °C -16.1 °C 34178.3 hPa Calm     95 % 7.62 mm
01:27 -15.9 °C -16.3 °C 34178.3 hPa Calm     95 % 7.62 mm
01:32 -15.9 °C -16.3 °C 34178.3 hPa Calm     96 % 7.62 mm
01:37 -15.9 °C -16.2 °C 34178.3 hPa Calm     96 % 0 mm
01:42 -15.8 °C -16.2 °C 34178.3 hPa Calm     96 % 0 mm
01:47 -15.7 °C -15.9 °C 34178.3 hPa Calm     97 % 0 mm
01:52 -15.6 °C -15.8 °C 34178.3 hPa Calm     97 % 0 mm
01:57 -15.4 °C -15.7 °C 34178.3 hPa Calm     97 % 0 mm
02:02 -15.4 °C -15.6 °C 34178.3 hPa Calm     97 % 0 mm
02:07 -15.4 °C -15.7 °C 34178.3 hPa Calm     97 % 0 mm
02:12 -15.4 °C -15.7 °C 34178.3 hPa Calm     97 % 0 mm
02:17 -15.4 °C -15.7 °C 34178.3 hPa Calm     97 % 0 mm
02:22 -15.5 °C -15.8 °C 34178.3 hPa Calm     96 % 0 mm
02:27 -15.5 °C -15.7 °C 34178.3 hPa Calm     97 % 0 mm
02:32 -15.6 °C -15.9 °C 34178.3 hPa Calm     96 % 0 mm
02:37 -15.7 °C -16 °C 34178.3 hPa Calm     96 % 0 mm
02:42 -15.7 °C -16.1 °C 34178.3 hPa Calm     96 % 0 mm
02:47 -15.7 °C -15.9 °C 34178.3 hPa Calm     97 % 0 mm
02:52 -15.8 °C -16 °C 34178.3 hPa Calm     97 % 0 mm
02:57 -15.8 °C -16 °C 34178.3 hPa Calm     97 % 0 mm
03:02 -15.8 °C -16 °C 34164.7 hPa Calm     97 % 0 mm
03:07 -15.8 °C -16 °C 34164.7 hPa Calm     97 % 0 mm
03:12 -15.8 °C -16.1 °C 34164.7 hPa Calm     97 % 0 mm
03:17 -15.9 °C -16.1 °C 34164.7 hPa Calm     97 % 0 mm
03:22 -15.9 °C -16.1 °C 34164.7 hPa Calm     97 % 0 mm
03:32 -16 °C -16.2 °C 34164.7 hPa Calm     97 % 0 mm
03:47 -16 °C -16.2 °C 34154.6 hPa Calm     97 % 0 mm
03:52 -16 °C -16.2 °C 34154.6 hPa Calm     97 % 0 mm
04:02 -16 °C -16.2 °C 34164.7 hPa Calm     97 % 0 mm
04:07 -16.1 °C -16.3 °C 34164.7 hPa Calm     97 % 0 mm
04:12 -16.1 °C -16.3 °C 34154.6 hPa Calm     97 % 0 mm
04:17 -16.2 °C -16.4 °C 34154.6 hPa Calm     97 % 0 mm
04:22 -16.2 °C -16.4 °C 34154.6 hPa Calm     97 % 0 mm
04:27 -16.3 °C -16.5 °C 34154.6 hPa Calm     97 % 0 mm
04:32 -16.4 °C -16.6 °C 34154.6 hPa Calm     97 % 0 mm
04:42 -16.6 °C -16.8 °C 34154.6 hPa Calm     97 % 0 mm
04:47 -16.7 °C -16.9 °C 34154.6 hPa Calm     97 % 0 mm
04:52 -16.8 °C -17 °C 34154.6 hPa Calm     97 % 0 mm
04:57 -16.7 °C -16.9 °C 34154.6 hPa Calm     97 % 0 mm
05:02 -16.7 °C -16.9 °C 34144.4 hPa Calm     97 % 0 mm
05:12 -16.7 °C -16.9 °C 34144.4 hPa Calm     97 % 0 mm
05:17 -16.6 °C -16.8 °C 34144.4 hPa Calm     97 % 0 mm
05:22 -16.6 °C -16.8 °C 34144.4 hPa Calm     97 % 0 mm
05:27 -16.6 °C -16.8 °C 34144.4 hPa Calm     97 % 0 mm
05:32 -16.6 °C -16.8 °C 34144.4 hPa Calm     97 % 0 mm
05:37 -16.6 °C -16.8 °C 34144.4 hPa Calm     97 % 0 mm
05:42 -16.5 °C -16.7 °C 34144.4 hPa Calm   2.6 km/h 97 % 0 mm
05:52 -16.5 °C -16.7 °C 34144.4 hPa Calm   2.6 km/h 97 % 0 mm
05:57 -16.4 °C -16.7 °C 34144.4 hPa Calm   5.1 km/h 97 % 0 mm
06:02 -16.4 °C -16.7 °C 34144.4 hPa Calm   5.1 km/h 97 % 0 mm
06:12 -16.5 °C -16.7 °C 34130.9 hPa Calm   2.6 km/h 97 % 0 mm
06:17 -16.4 °C -16.7 °C 34130.9 hPa Calm   2.6 km/h 97 % 0 mm
06:22 -16.5 °C -16.7 °C 34130.9 hPa Calm   2.6 km/h 97 % 0 mm
06:27 -16.5 °C -16.7 °C 34130.9 hPa Calm   2.6 km/h 97 % 0 mm
06:32 -16.6 °C -16.8 °C 34130.9 hPa Calm   2.6 km/h 97 % 0 mm
06:37 -16.7 °C -16.9 °C 34130.9 hPa Calm   2.6 km/h 97 % 0 mm
06:42 -16.7 °C -16.9 °C 34130.9 hPa Calm   5.1 km/h 97 % 0 mm
06:47 -16.7 °C -16.9 °C 34130.9 hPa Calm   5.1 km/h 97 % 0 mm
06:52 -16.8 °C -17 °C 34130.9 hPa Calm   5.1 km/h 97 % 0 mm
06:57 -16.8 °C -17 °C 34130.9 hPa Calm   10.3 km/h 97 % 0 mm
07:02 -16.8 °C -17.1 °C 34130.9 hPa Calm   10.3 km/h 97 % 0 mm
07:12 -16.8 °C -17 °C 34130.9 hPa Calm     97 % 0 mm
07:17 -16.8 °C -17 °C 34130.9 hPa Calm   2.6 km/h 97 % 0 mm
07:22 -16.8 °C -17 °C 34130.9 hPa Calm   2.6 km/h 97 % 0 mm
07:32 -16.7 °C -16.9 °C 34130.9 hPa Calm   2.6 km/h 97 % 0 mm
07:37 -16.7 °C -16.9 °C 34130.9 hPa Calm   2.6 km/h 97 % 0 mm
07:42 -16.6 °C -16.8 °C 34130.9 hPa Calm   2.6 km/h 98 % 0 mm
07:47 -16.6 °C -16.7 °C 34130.9 hPa Calm   2.6 km/h 98 % 0 mm
07:52 -16.5 °C -16.7 °C 34130.9 hPa Calm   2.6 km/h 98 % 0 mm
07:57 -16.4 °C -16.6 °C 34130.9 hPa Calm   2.6 km/h 98 % 0 mm
08:02 -16.4 °C -16.6 °C 34130.9 hPa Calm   2.6 km/h 98 % 0 mm
08:12 -16.2 °C -16.4 °C 34130.9 hPa Calm     98 % 0 mm
08:17 -16.2 °C -16.4 °C 34130.9 hPa Calm     98 % 0 mm
08:22 -16.2 °C -16.3 °C 34130.9 hPa Calm     98 % 0 mm
08:27 -16.1 °C -16.2 °C 34130.9 hPa Calm     98 % 0 mm
08:32 -16 °C -16.2 °C 34130.9 hPa Calm     98 % 0 mm
08:37 -15.9 °C -16.1 °C 34130.9 hPa Calm     98 % 0 mm
08:42 -15.8 °C -16 °C 34130.9 hPa Calm   2.6 km/h 98 % 0 mm
08:47 -15.7 °C -15.9 °C 34130.9 hPa Calm   2.6 km/h 98 % 0 mm
08:52 -15.7 °C -15.8 °C 34130.9 hPa Calm   2.6 km/h 98 % 0 mm
08:57 -15.6 °C -15.8 °C 34120.7 hPa Calm   2.6 km/h 98 % 0 mm
09:12 -15.1 °C -15.3 °C 34120.7 hPa Calm   2.6 km/h 98 % 0 mm
09:17 -14.9 °C -15.1 °C 34120.7 hPa Calm   2.6 km/h 98 % 7.62 mm
09:22 -14.8 °C -15 °C 34120.7 hPa Calm   2.6 km/h 98 % 7.62 mm
09:27 -14.6 °C -14.8 °C 34120.7 hPa Calm   2.6 km/h 98 % 7.62 mm
09:32 -14.2 °C -14.4 °C 34107.2 hPa Calm   2.6 km/h 98 % 7.62 mm
09:42 -13.6 °C -13.7 °C 34107.2 hPa Calm   2.6 km/h 98 % 7.62 mm
09:47 -13.4 °C -13.6 °C 34107.2 hPa Calm   2.6 km/h 98 % 7.62 mm
09:52 -13.5 °C -13.7 °C 34107.2 hPa ESE 2.6 km/h 7.7 km/h 98 % 7.62 mm
09:57 -13.3 °C -13.4 °C 34107.2 hPa Calm   7.7 km/h 98 % 7.62 mm
10:02 -13.2 °C -13.4 °C 34107.2 hPa WSW 2.6 km/h 7.7 km/h 98 % 7.62 mm
10:07 -12.9 °C -13.1 °C 34097 hPa Calm   7.7 km/h 98 % 7.62 mm
10:17 -12.7 °C -13.2 °C 34097 hPa Calm   7.7 km/h 94 % 0 mm
10:22 -12.4 °C -13.1 °C 34097 hPa WSW 5.1 km/h 10.3 km/h 92 % 0 mm
10:27 -12.3 °C -13.3 °C 34097 hPa Calm   10.3 km/h 88 % 0 mm
10:32 -12.1 °C -13.1 °C 34097 hPa Calm   10.3 km/h 88 % 0 mm
10:37 -11.8 °C -13.2 °C 34097 hPa SW 2.6 km/h 10.3 km/h 85 % 0 mm
10:42 -11.7 °C -13.1 °C 34097 hPa West 2.6 km/h 10.3 km/h 84 % 0 mm
10:47 -11.5 °C -12.8 °C 34086.9 hPa Calm   7.7 km/h 85 % 0 mm
10:52 -11.2 °C -12.7 °C 34086.9 hPa ESE 2.6 km/h 15.6 km/h 84 % 0 mm
10:57 -10.9 °C -12.9 °C 34086.9 hPa ESE 2.6 km/h 15.6 km/h 79 % 0 mm
11:07 -10.7 °C -13 °C 34086.9 hPa NNW 12.9 km/h 12.9 km/h 76 % 0 mm
11:12 -10.6 °C -12.8 °C 34086.9 hPa NNW 10.3 km/h 12.9 km/h 77 % 0 mm
11:17 -10.7 °C -13.1 °C 34073.3 hPa WNW 12.9 km/h 18.2 km/h 75 % 0 mm
11:22 -10.6 °C -13.1 °C 34073.3 hPa NNW 15.6 km/h 18.2 km/h 74 % 0 mm
11:32 -10.4 °C -12.9 °C 34073.3 hPa WSW 2.6 km/h 18.2 km/h 74 % 0 mm
11:37 -10.3 °C -12.7 °C 34073.3 hPa NW 2.6 km/h 18.2 km/h 75 % 0 mm
11:42 -10.3 °C -13.1 °C 34073.3 hPa NW 10.3 km/h 12.9 km/h 72 % 0 mm
11:47 -10.3 °C -12.9 °C 34063.2 hPa NNW 2.6 km/h 20.8 km/h 73 % 0 mm
11:57 -10.2 °C -13.1 °C 34063.2 hPa NNW 10.3 km/h 20.8 km/h 71 % 0 mm
12:02 -10.1 °C -12.9 °C 34063.2 hPa East 12.9 km/h 18.2 km/h 72 % 0 mm
12:07 -9.9 °C -13.2 °C 34063.2 hPa NNW 5.1 km/h 18.2 km/h 68 % 0 mm
12:12 -9.9 °C -12.9 °C 34063.2 hPa NW 10.3 km/h 18.2 km/h 70 % 0 mm
12:17 -9.8 °C -12.9 °C 34049.6 hPa NNW 2.6 km/h 18.2 km/h 69 % 0 mm
12:27 -9.6 °C -12.4 °C 34039.5 hPa NNW 5.1 km/h 18.2 km/h 71 % 0 mm
12:32 -9.3 °C -12.8 °C 34039.5 hPa WNW 7.7 km/h 18.2 km/h 66 % 0 mm
12:37 -9.4 °C -12.9 °C 34029.3 hPa NW 12.9 km/h 20.8 km/h 66 % 0 mm
12:47 -9.2 °C -12.6 °C 34029.3 hPa South 5.1 km/h 20.8 km/h 67 % 0 mm
12:52 -9.1 °C -12.8 °C 34029.3 hPa NW 10.3 km/h 18.2 km/h 65 % 0 mm
12:57 -9.1 °C -12.7 °C 34029.3 hPa NNE 12.9 km/h 25.9 km/h 65 % 0 mm
13:02 -8.9 °C -12.4 °C 34029.3 hPa SSW 5.1 km/h 25.9 km/h 66 % 0 mm
13:07 -8.8 °C -12.5 °C 34029.3 hPa West 2.6 km/h 25.9 km/h 65 % 0 mm
13:12 -8.8 °C -12.1 °C 34029.3 hPa NNW 7.7 km/h 20.8 km/h 68 % 0 mm
13:17 -8.7 °C -12.7 °C 34015.8 hPa NW 20.8 km/h 20.8 km/h 62 % 0 mm
13:22 -8.6 °C -12.7 °C 34015.8 hPa WNW 2.6 km/h 20.8 km/h 62 % 0 mm
13:27 -8.6 °C -12.7 °C 34015.8 hPa NW 10.3 km/h 20.8 km/h 62 % 0 mm
13:32 -8.6 °C -12.3 °C 34015.8 hPa WNW 10.3 km/h 20.8 km/h 64 % 0 mm
13:42 -8.4 °C -12.8 °C 34015.8 hPa Calm   20.8 km/h 60 % 0 mm
13:47 -8.3 °C -12.5 °C 34015.8 hPa North 20.8 km/h 20.8 km/h 61 % 0 mm
13:52 -8.4 °C -12.9 °C 34005.6 hPa NW 10.3 km/h 20.8 km/h 59 % 0 mm
13:57 -8.3 °C -12.6 °C 34005.6 hPa SSE 5.1 km/h 25.9 km/h 61 % 0 mm
14:02 -8.2 °C -12.7 °C 34005.6 hPa NW 2.6 km/h 25.9 km/h 59 % 0 mm
14:07 -8.2 °C -12.6 °C 34005.6 hPa SE 5.1 km/h 25.9 km/h 60 % 0 mm
14:12 -8.2 °C -12.7 °C 34005.6 hPa North 10.3 km/h 20.8 km/h 59 % 0 mm
14:17 -8.1 °C -12.2 °C 34005.6 hPa NNW 7.7 km/h 23.3 km/h 62 % 0 mm
14:22 -8 °C -12.5 °C 34005.6 hPa NW 2.6 km/h 23.3 km/h 59 % 0 mm
14:27 -8.1 °C -12.6 °C 34005.6 hPa NNW 18.2 km/h 18.2 km/h 59 % 0 mm
14:37 -7.7 °C -12.1 °C 34005.6 hPa West 5.1 km/h 25.9 km/h 60 % 0 mm
14:42 -7.7 °C -12.8 °C 34005.6 hPa WSW 7.7 km/h 25.9 km/h 55 % 0 mm
14:47 -7.8 °C -12.6 °C 33992.1 hPa NW 10.3 km/h 18.2 km/h 57 % 0 mm
14:57 -7.7 °C -12.7 °C 33992.1 hPa West 2.6 km/h 20.8 km/h 56 % 0 mm
15:02 -7.7 °C -12.3 °C 33992.1 hPa NW 5.1 km/h 28.5 km/h 58 % 0 mm
15:07 -7.6 °C -12.7 °C 33992.1 hPa West 5.1 km/h 28.5 km/h 55 % 0 mm
15:12 -7.6 °C -12.8 °C 33992.1 hPa West 7.7 km/h 28.5 km/h 54 % 0 mm
15:17 -7.7 °C -13.1 °C 33992.1 hPa North 18.2 km/h 23.3 km/h 53 % 0 mm
15:22 -7.7 °C -12.5 °C 33992.1 hPa NNW 10.3 km/h 23.3 km/h 57 % 0 mm
15:37 -7.4 °C -12.6 °C 33981.9 hPa NW 15.6 km/h 20.8 km/h 55 % 0 mm
15:42 -7.5 °C -12.8 °C 33981.9 hPa Calm   31.1 km/h 54 % 0 mm
15:47 -7.4 °C -12.8 °C 33981.9 hPa SSW 5.1 km/h 31.1 km/h 53 % 0 mm
15:52 -7.3 °C -12.6 °C 33981.9 hPa NNW 10.3 km/h 31.1 km/h 54 % 0 mm
15:57 -7.3 °C -12.8 °C 33981.9 hPa WNW 5.1 km/h 20.8 km/h 53 % 0 mm
16:02 -7.2 °C -12.4 °C 33981.9 hPa WNW 2.6 km/h 20.8 km/h 54 % 0 mm
16:12 -7.3 °C -12.9 °C 33971.7 hPa WNW 5.1 km/h 18.2 km/h 52 % 0 mm
16:17 -7.3 °C -12.6 °C 33971.7 hPa NNW 10.3 km/h 25.9 km/h 54 % 0 mm
16:22 -7.3 °C -12.9 °C 33958.2 hPa NNW 12.9 km/h 28.5 km/h 52 % 0 mm
16:27 -7.3 °C -12.9 °C 33958.2 hPa NW 7.7 km/h 28.5 km/h 52 % 0 mm
16:37 -7.2 °C -12.7 °C 33958.2 hPa WNW 5.1 km/h 25.9 km/h 53 % 0 mm
16:47 -7 °C -12.8 °C 33958.2 hPa North 7.7 km/h 18.2 km/h 51 % 0 mm
16:52 -7.1 °C -13.1 °C 33958.2 hPa North 10.3 km/h 18.2 km/h 50 % 0 mm
16:57 -7.1 °C -12.9 °C 33958.2 hPa South 15.6 km/h 18.2 km/h 51 % 0 mm
17:02 -7.2 °C -13 °C 33958.2 hPa North 5.1 km/h 23.3 km/h 51 % 0 mm
17:07 -7.2 °C -12.8 °C 33958.2 hPa North 7.7 km/h 23.3 km/h 52 % 0 mm
17:12 -7 °C -12.6 °C 33958.2 hPa North 5.1 km/h 23.3 km/h 52 % 0 mm
17:17 -7.1 °C -13 °C 33958.2 hPa NW 7.7 km/h 23.3 km/h 50 % 0 mm
17:22 -7.2 °C -12.8 °C 33958.2 hPa North 15.6 km/h 23.3 km/h 52 % 0 mm
17:27 -7.2 °C -13 °C 33948 hPa NW 7.7 km/h 23.3 km/h 51 % 0 mm
17:32 -7.2 °C -12.9 °C 33948 hPa WNW 5.1 km/h 23.3 km/h 51 % 0 mm
17:37 -7.2 °C -12.9 °C 33948 hPa NNW 7.7 km/h 23.3 km/h 51 % 0 mm
17:42 -7.2 °C -12.8 °C 33948 hPa Calm   23.3 km/h 52 % 0 mm
17:47 -7.1 °C -12.7 °C 33937.9 hPa NW 7.7 km/h 23.3 km/h 52 % 0 mm
17:52 -7.1 °C -13.2 °C 33937.9 hPa SSE 5.1 km/h 23.3 km/h 49 % 0 mm
17:57 -7.1 °C -12.9 °C 33937.9 hPa North 15.6 km/h 18.2 km/h 51 % 0 mm
18:02 -7.4 °C -13.1 °C 33937.9 hPa NW 12.9 km/h 23.3 km/h 51 % 0 mm
18:07 -7.7 °C -13.2 °C 33937.9 hPa NW 2.6 km/h 23.3 km/h 52 % 0 mm
18:12 -7.8 °C -13.2 °C 33937.9 hPa NE 5.1 km/h 23.3 km/h 53 % 0 mm
18:17 -7.9 °C -13.3 °C 33937.9 hPa WNW 2.6 km/h 20.8 km/h 53 % 0 mm
18:27 -8 °C -13.2 °C 33937.9 hPa Calm   15.6 km/h 54 % 0 mm
18:42 -8.2 °C -13.2 °C 33937.9 hPa Calm   12.9 km/h 55 % 0 mm
18:47 -8.2 °C -13.1 °C 33937.9 hPa SSE 5.1 km/h 12.9 km/h 56 % 0 mm
18:52 -8.2 °C -13 °C 33937.9 hPa ESE 2.6 km/h 10.3 km/h 57 % 0 mm
18:57 -8.2 °C -13 °C 33937.9 hPa Calm   15.6 km/h 57 % 0 mm
19:02 -8.3 °C -13.1 °C 33937.9 hPa SE 2.6 km/h 15.6 km/h 57 % 0 mm
19:07 -8.4 °C -13.2 °C 33937.9 hPa SE 2.6 km/h 15.6 km/h 57 % 0 mm
19:12 -8.4 °C -13.2 °C 33937.9 hPa SW 2.6 km/h 12.9 km/h 57 % 0 mm
19:17 -8.4 °C -13.2 °C 33937.9 hPa Calm   12.9 km/h 57 % 0 mm
19:22 -8.4 °C -13.2 °C 33937.9 hPa SE 2.6 km/h 12.9 km/h 57 % 0 mm
19:27 -8.4 °C -13.2 °C 33937.9 hPa South 2.6 km/h 12.9 km/h 57 % 0 mm
19:32 -8.4 °C -13.1 °C 33937.9 hPa North 2.6 km/h 18.2 km/h 58 % 0 mm
19:37 -8.5 °C -13.3 °C 33937.9 hPa ESE 10.3 km/h 18.2 km/h 57 % 0 mm
19:42 -8.5 °C -13.3 °C 33937.9 hPa SW 2.6 km/h 12.9 km/h 57 % 0 mm
19:47 -8.5 °C -13.4 °C 33937.9 hPa West 5.1 km/h 18.2 km/h 56 % 0 mm
19:52 -8.6 °C -13.4 °C 33937.9 hPa East 12.9 km/h 18.2 km/h 56 % 0 mm
19:57 -8.6 °C -13.3 °C 33937.9 hPa Calm   18.2 km/h 57 % 0 mm
20:02 -8.7 °C -13.6 °C 33937.9 hPa SW 2.6 km/h 12.9 km/h 56 % 0 mm
20:07 -8.7 °C -13.6 °C 33937.9 hPa East 5.1 km/h 12.9 km/h 56 % 0 mm
20:12 -8.7 °C -13.4 °C 33937.9 hPa Calm   10.3 km/h 57 % 0 mm
20:22 -9 °C -13.7 °C 33937.9 hPa Calm   10.3 km/h 57 % 0 mm
20:27 -9.1 °C -13.3 °C 33937.9 hPa ESE 2.6 km/h 7.7 km/h 61 % 0 mm
20:32 -9.2 °C -13.5 °C 33937.9 hPa Calm   12.9 km/h 60 % 0 mm
20:37 -9.4 °C -13.6 °C 33937.9 hPa Calm   12.9 km/h 61 % 0 mm
20:42 -9.6 °C -13.5 °C 33937.9 hPa Calm   12.9 km/h 63 % 0 mm
20:47 -9.9 °C -13.4 °C 33937.9 hPa Calm   7.7 km/h 66 % 0 mm
20:52 -10.2 °C -13.4 °C 33937.9 hPa Calm   7.7 km/h 68 % 0 mm
20:57 -10.4 °C -13.4 °C 33937.9 hPa Calm   5.1 km/h 70 % 0 mm
21:02 -10.7 °C -13.4 °C 33937.9 hPa Calm   2.6 km/h 72 % 0 mm
21:07 -10.9 °C -13.4 °C 33937.9 hPa Calm     74 % 0 mm
21:12 -11.1 °C -13.6 °C 33937.9 hPa Calm     74 % 0 mm
21:22 -11.3 °C -13.7 °C 33937.9 hPa ENE 5.1 km/h   75 % 0 mm
21:32 -11.2 °C -13.8 °C 33937.9 hPa Calm   7.7 km/h 73 % 0 mm
21:37 -10.9 °C -13.8 °C 33937.9 hPa Calm   10.3 km/h 70 % 0 mm
21:42 -10.6 °C -13.8 °C 33937.9 hPa Calm   10.3 km/h 68 % 0 mm
21:47 -10.4 °C -13.9 °C 33937.9 hPa Calm   10.3 km/h 66 % 0 mm
21:52 -10.4 °C -13.9 °C 33937.9 hPa Calm   10.3 km/h 65 % 0 mm
21:57 -10.4 °C -13.8 °C 33937.9 hPa Calm   7.7 km/h 66 % 0 mm
22:02 -10.6 °C -13.9 °C 33937.9 hPa Calm   5.1 km/h 67 % 0 mm
22:07 -10.7 °C -13.8 °C 33937.9 hPa Calm   5.1 km/h 69 % 0 mm
22:12 -10.9 °C -13.9 °C 33937.9 hPa Calm   7.7 km/h 70 % 0 mm
22:17 -11.2 °C -14 °C 33937.9 hPa Calm   7.7 km/h 71 % 0 mm
22:22 -11.4 °C -14 °C 33937.9 hPa Calm   7.7 km/h 73 % 0 mm
22:32 -11.7 °C -14.1 °C 33937.9 hPa Calm   5.1 km/h 75 % 0 mm
22:37 -11.6 °C -14.2 °C 33937.9 hPa Calm   5.1 km/h 73 % 0 mm
22:42 -11.3 °C -14.2 °C 33937.9 hPa Calm   5.1 km/h 70 % 0 mm
22:47 -11.2 °C -14.2 °C 33937.9 hPa Calm   5.1 km/h 69 % 0 mm
22:52 -10.9 °C -14 °C 33937.9 hPa Calm   7.7 km/h 69 % 0 mm
22:57 -10.9 °C -14.1 °C 33937.9 hPa Calm   7.7 km/h 68 % 0 mm
23:02 -10.9 °C -14.2 °C 33937.9 hPa Calm   7.7 km/h 67 % 0 mm
23:07 -10.9 °C -14.1 °C 33937.9 hPa Calm   7.7 km/h 68 % 0 mm
23:12 -10.8 °C -14.1 °C 33937.9 hPa Calm   12.9 km/h 67 % 0 mm
23:17 -10.9 °C -14.1 °C 33937.9 hPa Calm   12.9 km/h 68 % 0 mm
23:27 -11.1 °C -14.1 °C 33937.9 hPa Calm   2.6 km/h 70 % 0 mm
23:32 -11.2 °C -14.2 °C 33937.9 hPa Calm   2.6 km/h 70 % 0 mm
23:37 -11.4 °C -14.2 °C 33937.9 hPa Calm   2.6 km/h 71 % 0 mm
23:42 -11.6 °C -14.3 °C 33937.9 hPa Calm   2.6 km/h 72 % 0 mm
23:47 -11.7 °C -14.3 °C 33937.9 hPa Calm   2.6 km/h 73 % 0 mm
Meteo18
Compliments of Weather Underground - 4 mb

Script developed by  Jim McMurry - jmcmurry@mwt.net Adapted for the template by  Wim van der Kuil - Leuven-Template.eu

You find our weather info also at:

European Weather Network

Weather Underground

Equipment we use:

Weather-station
Davis Vue

Weather-program
Meteobridge

Weather-server
Raspberry PI 2 B+

Provider
1 and 1

Davis Vue

Meteobridge

Raspberry PI 2 B+

1 and 1